createdAt,value
2022-08-30T00:01:29.541Z,101527.00
2022-08-30T00:04:01.865Z,101535.84
2022-08-30T00:06:33.263Z,101547.25
2022-08-30T00:09:04.664Z,101529.44
2022-08-30T00:11:35.951Z,101544.41
2022-08-30T00:14:07.251Z,101536.47
2022-08-30T00:16:38.557Z,101532.94
2022-08-30T00:19:09.910Z,101532.09
2022-08-30T00:21:41.277Z,101550.69
2022-08-30T00:24:12.701Z,101537.38
2022-08-30T00:26:44.022Z,101549.69
2022-08-30T00:29:15.340Z,101540.81
2022-08-30T00:31:46.735Z,101536.28
2022-08-30T00:34:18.271Z,101544.22
2022-08-30T00:36:49.641Z,101544.31
2022-08-30T00:39:20.976Z,101548.63
2022-08-30T00:41:52.295Z,101551.31
2022-08-30T00:44:24.172Z,101541.47
2022-08-30T00:46:55.487Z,101551.25
2022-08-30T00:49:28.178Z,101537.06
2022-08-30T00:52:00.960Z,101531.00
2022-08-30T00:54:33.998Z,101543.34
2022-08-30T00:57:05.786Z,101544.28
2022-08-30T00:59:38.274Z,101552.22
2022-08-30T01:02:10.319Z,101555.78
2022-08-30T01:04:43.038Z,101552.13
2022-08-30T01:07:15.510Z,101565.56
2022-08-30T01:09:47.042Z,101569.09
2022-08-30T01:12:18.765Z,101575.28
2022-08-30T01:14:50.422Z,101569.97
2022-08-30T01:17:24.398Z,101562.81
2022-08-30T01:20:00.689Z,101555.66
2022-08-30T01:22:44.185Z,101545.06
2022-08-30T01:25:27.454Z,101544.13
2022-08-30T01:28:04.253Z,101552.22
2022-08-30T01:30:39.063Z,101547.78
2022-08-30T01:33:12.139Z,101548.75
2022-08-30T01:35:52.398Z,101547.00
2022-08-30T01:38:27.861Z,101542.59
2022-08-30T01:41:13.412Z,101550.59
2022-08-30T01:43:45.746Z,101551.31
2022-08-30T01:46:19.257Z,101546.81
2022-08-30T01:48:53.908Z,101541.53
2022-08-30T01:51:28.310Z,101539.53
2022-08-30T01:53:59.844Z,101551.06
2022-08-30T01:56:31.661Z,101551.03
2022-08-30T01:59:04.371Z,101550.00
2022-08-30T02:01:36.992Z,101544.59
2022-08-30T02:04:11.741Z,101541.88
2022-08-30T02:06:44.310Z,101543.63
2022-08-30T02:09:15.610Z,101553.38
2022-08-30T02:11:48.280Z,101549.00
2022-08-30T02:14:21.125Z,101541.94
2022-08-30T02:16:52.841Z,101539.28
2022-08-30T02:19:24.395Z,101548.94
2022-08-30T02:21:55.750Z,101556.91
2022-08-30T02:24:27.176Z,101559.53
2022-08-30T02:26:58.606Z,101555.94
2022-08-30T02:29:29.945Z,101552.50
2022-08-30T02:32:01.295Z,101562.06
2022-08-30T02:34:32.848Z,101563.00
2022-08-30T02:37:04.893Z,101551.69
2022-08-30T02:39:36.569Z,101556.81
2022-08-30T02:42:08.217Z,101555.94
2022-08-30T02:44:39.541Z,101548.91
2022-08-30T02:47:10.850Z,101542.66
2022-08-30T02:49:42.160Z,101553.31
2022-08-30T02:52:13.612Z,101555.06
2022-08-30T02:54:45.049Z,101560.41
2022-08-30T02:57:20.456Z,101554.09
2022-08-30T02:59:52.279Z,101553.22
2022-08-30T03:02:23.695Z,101542.56
2022-08-30T03:04:55.407Z,101549.78
2022-08-30T03:07:26.879Z,101549.78
2022-08-30T03:09:58.356Z,101546.22
2022-08-30T03:12:29.729Z,101540.22
2022-08-30T03:15:02.692Z,101546.44
2022-08-30T03:17:34.344Z,101551.72
2022-08-30T03:20:06.815Z,101551.72
2022-08-30T03:22:38.366Z,101551.69
2022-08-30T03:25:09.893Z,101540.22
2022-08-30T03:27:41.333Z,101557.97
2022-08-30T03:30:13.320Z,101545.53
2022-08-30T03:32:44.988Z,101539.34
2022-08-30T03:35:18.040Z,101549.91
2022-08-30T03:37:49.560Z,101539.34
2022-08-30T03:40:27.943Z,101549.09
2022-08-30T03:42:59.306Z,101547.38
2022-08-30T03:45:31.118Z,101545.72
2022-08-30T03:48:02.917Z,101546.53
2022-08-30T03:50:35.661Z,101537.84
2022-08-30T03:53:07.460Z,101548.47
2022-08-30T03:55:38.807Z,101560.09
2022-08-30T03:58:10.481Z,101544.97
2022-08-30T04:00:41.907Z,101555.59
2022-08-30T04:03:13.944Z,101558.19
2022-08-30T04:05:45.320Z,101549.22
2022-08-30T04:08:16.610Z,101559.91
2022-08-30T04:10:48.311Z,101560.78
2022-08-30T04:13:21.445Z,101545.63
2022-08-30T04:15:52.846Z,101551.91
2022-08-30T04:18:24.214Z,101554.53
2022-08-30T04:20:55.874Z,101551.84
2022-08-30T04:23:28.430Z,101559.03
2022-08-30T04:25:59.984Z,101551.06
2022-08-30T04:28:31.448Z,101557.19
2022-08-30T04:31:15.456Z,101558.97
2022-08-30T04:33:46.953Z,101564.28
2022-08-30T04:36:18.296Z,101563.38
2022-08-30T04:38:49.610Z,101564.28
2022-08-30T04:41:24.267Z,101567.03
2022-08-30T04:43:55.673Z,101569.66
2022-08-30T04:46:26.957Z,101571.41
2022-08-30T04:48:58.257Z,101564.28
2022-08-30T04:51:29.595Z,101560.78
2022-08-30T04:54:01.085Z,101572.47
2022-08-30T04:56:32.911Z,101573.25
2022-08-30T04:59:04.421Z,101573.34
2022-08-30T05:01:44.674Z,101579.53
2022-08-30T05:04:17.102Z,101583.97
2022-08-30T05:06:49.100Z,101580.44
2022-08-30T05:09:21.560Z,101586.72
2022-08-30T05:11:53.361Z,101586.75
2022-08-30T05:14:24.955Z,101586.06
2022-08-30T05:16:56.244Z,101586.78
2022-08-30T05:19:27.806Z,101592.16
2022-08-30T05:21:59.788Z,101584.13
2022-08-30T05:24:32.036Z,101594.66
2022-08-30T05:27:03.850Z,101589.25
2022-08-30T05:29:35.175Z,101588.28
2022-08-30T05:32:08.362Z,101583.00
2022-08-30T05:34:39.696Z,101588.34
2022-08-30T05:37:11.065Z,101583.91
2022-08-30T05:39:45.088Z,101580.34
2022-08-30T05:42:22.901Z,101590.00
2022-08-30T05:44:54.785Z,101587.13
2022-08-30T05:47:26.092Z,101589.69
2022-08-30T05:49:57.402Z,101592.28
2022-08-30T05:52:28.727Z,101586.84
2022-08-30T05:55:00.133Z,101609.59
2022-08-30T05:57:33.797Z,101602.22
2022-08-30T06:00:14.389Z,101599.28
2022-08-30T06:02:45.923Z,101606.31
2022-08-30T06:05:17.273Z,101601.78
2022-08-30T06:07:49.283Z,101601.63
2022-08-30T06:10:20.582Z,101611.38
2022-08-30T06:12:51.871Z,101600.66
2022-08-30T06:15:23.176Z,101612.06
2022-08-30T06:17:54.585Z,101616.38
2022-08-30T06:20:25.894Z,101610.84
2022-08-30T06:22:57.197Z,101605.19
2022-08-30T06:25:28.528Z,101601.47
2022-08-30T06:28:13.891Z,101607.34
2022-08-30T06:30:45.294Z,101602.81
2022-08-30T06:33:16.582Z,101617.69
2022-08-30T06:35:58.682Z,101608.66
2022-08-30T06:38:31.068Z,101599.41
2022-08-30T06:41:14.843Z,101599.03
2022-08-30T06:43:49.065Z,101595.25
2022-08-30T06:46:24.769Z,101595.69
2022-08-30T06:48:56.779Z,101609.69
2022-08-30T06:51:34.749Z,101602.16
2022-08-30T06:54:10.697Z,101598.34
2022-08-30T06:56:57.756Z,101603.34
2022-08-30T06:59:29.724Z,101611.19
2022-08-30T07:02:01.178Z,101592.25
2022-08-30T07:04:32.718Z,101605.16
2022-08-30T07:07:04.751Z,101592.34
2022-08-30T07:09:36.268Z,101597.09
2022-08-30T07:12:08.574Z,101611.94
2022-08-30T07:14:40.049Z,101614.34
2022-08-30T07:17:34.038Z,101602.72
2022-08-30T07:20:06.637Z,101602.09
2022-08-30T07:22:38.043Z,101606.25
2022-08-30T07:25:09.617Z,101604.91
2022-08-30T07:27:41.692Z,101599.59
2022-08-30T07:30:14.059Z,101610.56
2022-08-30T07:32:45.371Z,101615.75
2022-08-30T07:35:16.854Z,101627.28
2022-08-30T07:37:48.175Z,101628.31
2022-08-30T07:40:19.712Z,101614.53
2022-08-30T07:42:51.117Z,101610.16
2022-08-30T07:45:22.562Z,101614.75
2022-08-30T07:47:53.910Z,101610.75
2022-08-30T07:50:25.316Z,101618.19
2022-08-30T07:52:56.774Z,101613.00
2022-08-30T07:55:28.173Z,101625.19
2022-08-30T07:57:59.525Z,101629.50
2022-08-30T08:00:30.996Z,101630.00
2022-08-30T08:03:07.603Z,101631.63
2022-08-30T08:05:44.665Z,101633.38
2022-08-30T08:08:16.226Z,101638.78
2022-08-30T08:10:47.985Z,101635.00
2022-08-30T08:13:19.441Z,101635.97
2022-08-30T08:15:52.623Z,101635.88
2022-08-30T08:18:24.013Z,101642.16
2022-08-30T08:20:56.001Z,101639.47
2022-08-30T08:23:28.666Z,101635.75
2022-08-30T08:26:00.513Z,101633.47
2022-08-30T08:28:32.482Z,101644.56
2022-08-30T08:31:04.052Z,101644.50
2022-08-30T08:33:35.390Z,101640.13
2022-08-30T08:36:09.357Z,101643.53
2022-08-30T08:38:41.261Z,101653.91
2022-08-30T08:41:32.193Z,101652.00
2022-08-30T08:44:33.773Z,101647.47
2022-08-30T08:47:26.173Z,101654.84
2022-08-30T08:50:03.055Z,101661.66
2022-08-30T08:53:25.123Z,101662.09
2022-08-30T08:56:12.548Z,101659.25
2022-08-30T08:58:45.402Z,101669.63
2022-08-30T09:01:20.985Z,101649.47
2022-08-30T09:03:52.718Z,101664.72
2022-08-30T09:06:45.692Z,101651.53
2022-08-30T09:09:25.469Z,101652.22
2022-08-30T09:11:57.142Z,101666.53
2022-08-30T09:14:34.673Z,101662.38
2022-08-30T09:17:12.273Z,101672.09
2022-08-30T09:20:02.396Z,101671.78
2022-08-30T09:22:35.519Z,101676.19
2022-08-30T09:25:08.594Z,101678.72
2022-08-30T09:27:44.038Z,101666.75
2022-08-30T09:30:20.374Z,101667.13
2022-08-30T09:32:58.164Z,101674.28
2022-08-30T09:35:46.650Z,101661.09
2022-08-30T09:38:26.193Z,101664.06
2022-08-30T09:40:59.276Z,101672.09
2022-08-30T09:43:34.671Z,101674.34
2022-08-30T09:46:08.738Z,101670.13
2022-08-30T09:48:44.097Z,101674.66
2022-08-30T09:51:40.223Z,101671.63
2022-08-30T09:54:33.705Z,101669.94
2022-08-30T09:57:34.501Z,101678.94
2022-08-30T10:00:14.027Z,101676.16
2022-08-30T10:03:07.130Z,101667.50
2022-08-30T10:05:56.195Z,101671.72
2022-08-30T10:08:50.533Z,101676.22
2022-08-30T10:11:32.036Z,101679.53
2022-08-30T10:14:33.843Z,101671.31
2022-08-30T10:17:16.040Z,101673.25
2022-08-30T10:20:06.532Z,101666.56
2022-08-30T10:22:46.503Z,101669.81
2022-08-30T10:25:25.684Z,101667.91
2022-08-30T10:28:04.430Z,101657.03
2022-08-30T10:30:38.997Z,101665.19
2022-08-30T10:33:25.376Z,101662.25
2022-08-30T10:36:01.810Z,101662.19
2022-08-30T10:38:36.032Z,101663.94
2022-08-30T10:41:22.585Z,101654.59
2022-08-30T10:44:06.522Z,101643.97
2022-08-30T10:47:23.337Z,101651.56
2022-08-30T10:50:21.341Z,101660.72
2022-08-30T10:53:30.048Z,101654.47
2022-08-30T10:56:08.503Z,101644.47
2022-08-30T10:58:42.369Z,101646.50
2022-08-30T11:01:32.772Z,101635.88
2022-08-30T11:04:24.871Z,101646.59
2022-08-30T11:07:03.504Z,101631.97
2022-08-30T11:09:42.252Z,101639.38
2022-08-30T11:12:31.128Z,101636.22
2022-08-30T11:15:37.717Z,101635.19
2022-08-30T11:18:08.975Z,101635.81
2022-08-30T11:20:53.929Z,101639.47
2022-08-30T11:23:36.002Z,101635.59
2022-08-30T11:26:13.989Z,101627.16
2022-08-30T11:28:52.026Z,101633.44
2022-08-30T11:31:23.520Z,101631.94
2022-08-30T11:33:58.796Z,101634.44
2022-08-30T11:36:37.932Z,101634.59
2022-08-30T11:39:13.368Z,101629.75
2022-08-30T11:41:47.754Z,101618.16
2022-08-30T11:44:22.476Z,101621.41
2022-08-30T11:46:56.416Z,101607.16
2022-08-30T11:49:37.549Z,101624.72
2022-08-30T11:52:28.641Z,101608.69
2022-08-30T11:55:14.882Z,101619.53
2022-08-30T11:58:05.572Z,101620.22
2022-08-30T12:00:40.729Z,101622.94
2022-08-30T12:03:15.464Z,101621.78
2022-08-30T12:05:51.557Z,101612.88
2022-08-30T12:08:36.033Z,101615.53
2022-08-30T12:11:33.472Z,101616.31
2022-08-30T12:14:09.271Z,101610.50
2022-08-30T12:17:06.084Z,101602.63
2022-08-30T12:19:38.545Z,101610.22
2022-08-30T12:22:16.607Z,101594.78
2022-08-30T12:24:51.945Z,101608.66
2022-08-30T12:27:27.741Z,101601.47
2022-08-30T12:30:09.975Z,101600.22
2022-08-30T12:32:50.604Z,101601.47
2022-08-30T12:35:28.032Z,101604.38
2022-08-30T12:38:14.013Z,101610.97
2022-08-30T12:40:51.660Z,101611.66
2022-08-30T12:43:38.951Z,101608.56
2022-08-30T12:46:16.629Z,101607.19
2022-08-30T12:48:48.675Z,101601.09
2022-08-30T12:51:39.433Z,101596.72
2022-08-30T12:54:20.809Z,101596.41
2022-08-30T12:57:19.249Z,101595.03
2022-08-30T12:59:59.835Z,101588.38
2022-08-30T13:02:52.016Z,101588.88
2022-08-30T13:05:45.781Z,101586.84
2022-08-30T13:08:22.495Z,101591.75
2022-08-30T13:11:08.438Z,101585.16
2022-08-30T13:13:44.258Z,101580.81
2022-08-30T13:16:20.397Z,101580.44
2022-08-30T13:18:54.732Z,101577.91
2022-08-30T13:21:28.974Z,101575.59
2022-08-30T13:24:03.200Z,101575.41
2022-08-30T13:26:38.266Z,101585.19
2022-08-30T13:29:20.702Z,101582.56
2022-08-30T13:31:52.785Z,101590.31
2022-08-30T13:34:25.005Z,101585.28
2022-08-30T13:36:57.803Z,101575.50
2022-08-30T13:39:29.661Z,101580.91
2022-08-30T13:44:52.418Z,101576.53
2022-08-30T13:47:33.059Z,101564.03
2022-08-30T13:50:06.538Z,101556.72
2022-08-30T13:52:39.412Z,101579.28
2022-08-30T13:55:12.322Z,101580.22
2022-08-30T13:57:58.923Z,101589.16
2022-08-30T14:00:34.767Z,101569.16
2022-08-30T14:03:08.961Z,101571.00
2022-08-30T14:05:51.009Z,101576.84
2022-08-30T14:08:48.601Z,101579.16
2022-08-30T14:11:22.706Z,101580.22
2022-08-30T14:16:46.387Z,101572.84
2022-08-30T14:19:18.365Z,101580.38
2022-08-30T14:21:51.067Z,101576.78
2022-08-30T14:24:29.679Z,101577.75
2022-08-30T14:27:01.179Z,101573.72
2022-08-30T14:29:32.540Z,101575.13
2022-08-30T14:32:11.015Z,101577.50
2022-08-30T14:34:42.373Z,101568.28
2022-08-30T14:37:13.717Z,101572.66
2022-08-30T14:39:45.090Z,101570.72
2022-08-30T14:42:18.803Z,101585.03
2022-08-30T14:44:56.542Z,101570.66
2022-08-30T14:47:29.496Z,101587.38
2022-08-30T14:50:01.836Z,101575.75
2022-08-30T14:52:33.585Z,101582.47
2022-08-30T14:55:09.715Z,101577.75
2022-08-30T14:57:41.246Z,101585.41
2022-08-30T15:00:13.572Z,101576.94
2022-08-30T15:02:45.076Z,101580.00
2022-08-30T15:05:17.486Z,101581.75
2022-08-30T15:07:52.921Z,101569.00
2022-08-30T15:10:24.704Z,101575.31
2022-08-30T15:12:56.073Z,101573.94
2022-08-30T15:15:27.399Z,101576.19
2022-08-30T15:17:58.756Z,101575.69
2022-08-30T15:20:30.512Z,101571.13
2022-08-30T15:23:01.887Z,101563.97
2022-08-30T15:25:33.222Z,101572.59
2022-08-30T15:28:04.613Z,101566.06
2022-08-30T15:30:36.774Z,101573.94
2022-08-30T15:33:08.115Z,101567.91
2022-08-30T15:35:39.440Z,101567.44
2022-08-30T15:38:12.493Z,101562.53
2022-08-30T15:40:45.921Z,101558.25
2022-08-30T15:43:17.729Z,101562.72
2022-08-30T15:45:49.172Z,101557.47
2022-08-30T15:48:21.954Z,101558.97
2022-08-30T15:50:57.853Z,101563.84
2022-08-30T15:53:29.214Z,101568.13
2022-08-30T15:56:00.981Z,101563.94
2022-08-30T15:58:32.344Z,101575.78
2022-08-30T16:01:05.521Z,101560.56
2022-08-30T16:03:37.730Z,101550.59
2022-08-30T16:06:18.348Z,101554.91
2022-08-30T16:08:50.080Z,101565.09
2022-08-30T16:11:22.635Z,101554.78
2022-08-30T16:13:57.764Z,101536.56
2022-08-30T16:16:30.876Z,101557.97
2022-08-30T16:19:02.258Z,101550.00
2022-08-30T16:21:36.767Z,101546.75
2022-08-30T16:24:10.629Z,101545.47
2022-08-30T16:26:42.975Z,101545.84
2022-08-30T16:29:14.537Z,101553.31
2022-08-30T16:31:47.468Z,101544.66
2022-08-30T16:34:20.268Z,101550.47
2022-08-30T16:36:51.674Z,101556.19
2022-08-30T16:39:23.220Z,101556.56
2022-08-30T16:41:54.635Z,101550.59
2022-08-30T16:44:29.851Z,101562.03
2022-08-30T16:47:01.500Z,101555.09
2022-08-30T16:49:32.884Z,101554.59
2022-08-30T16:52:04.402Z,101560.28
2022-08-30T16:54:35.703Z,101554.28
2022-08-30T16:57:07.172Z,101556.31
2022-08-30T16:59:38.465Z,101549.41
2022-08-30T17:02:09.864Z,101553.13
2022-08-30T17:04:42.756Z,101565.06
2022-08-30T17:07:18.516Z,101557.19
2022-08-30T17:09:52.685Z,101549.75
2022-08-30T17:12:24.642Z,101550.88
2022-08-30T17:14:57.528Z,101554.72
2022-08-30T17:17:28.869Z,101558.66
2022-08-30T17:20:00.971Z,101550.19
2022-08-30T17:22:32.743Z,101568.53
2022-08-30T17:25:04.458Z,101560.78
2022-08-30T17:27:36.642Z,101562.03
2022-08-30T17:30:08.800Z,101565.69
2022-08-30T17:32:40.174Z,101567.84
2022-08-30T17:35:11.925Z,101567.28
2022-08-30T17:37:43.365Z,101572.00
2022-08-30T17:40:17.274Z,101579.53
2022-08-30T17:42:48.979Z,101581.63
2022-08-30T17:45:20.996Z,101591.78
2022-08-30T17:47:52.582Z,101591.22
2022-08-30T17:50:23.946Z,101594.38
2022-08-30T17:52:59.373Z,101595.66
2022-08-30T17:55:30.980Z,101594.22
2022-08-30T17:58:02.312Z,101599.16
2022-08-30T18:00:33.665Z,101595.16
2022-08-30T18:03:06.141Z,101591.06
2022-08-30T18:05:38.441Z,101608.31
2022-08-30T18:08:13.134Z,101608.69
2022-08-30T18:10:44.472Z,101599.25
2022-08-30T18:13:16.693Z,101608.31
2022-08-30T18:15:48.110Z,101608.78
2022-08-30T18:18:22.974Z,101606.47
2022-08-30T18:20:54.567Z,101622.84
2022-08-30T18:23:26.047Z,101621.25
2022-08-30T18:26:01.494Z,101616.41
2022-08-30T18:28:33.797Z,101628.25
2022-08-30T18:31:05.367Z,101633.78
2022-08-30T18:33:40.956Z,101635.75
2022-08-30T18:36:14.982Z,101645.91
2022-08-30T18:38:47.607Z,101627.81
2022-08-30T18:41:19.250Z,101647.19
2022-08-30T18:44:01.819Z,101651.00
2022-08-30T18:46:45.304Z,101650.44
2022-08-30T18:49:32.364Z,101645.34
2022-08-30T18:52:07.345Z,101654.44
2022-08-30T18:54:42.487Z,101626.47
2022-08-30T18:57:14.626Z,101652.22
2022-08-30T18:59:46.037Z,101660.28
2022-08-30T19:02:18.022Z,101656.09
2022-08-30T19:04:49.376Z,101642.16
2022-08-30T19:07:21.545Z,101646.69
2022-08-30T19:09:59.022Z,101640.19
2022-08-30T19:12:30.974Z,101670.38
2022-08-30T19:15:11.036Z,101639.78
2022-08-30T19:17:45.744Z,101632.16
2022-08-30T19:20:21.448Z,101662.25
2022-08-30T19:23:09.877Z,101666.06
2022-08-30T19:25:42.798Z,101669.00
2022-08-30T19:28:15.378Z,101668.34
2022-08-30T19:30:47.248Z,101637.78
2022-08-30T19:33:19.693Z,101667.09
2022-08-30T19:35:52.826Z,101676.91
2022-08-30T19:38:24.895Z,101653.34
2022-08-30T19:40:58.948Z,101686.91
2022-08-30T19:43:31.129Z,101672.84
2022-08-30T19:46:02.679Z,101651.84
2022-08-30T19:48:37.869Z,101668.59
2022-08-30T19:51:58.798Z,101674.06
2022-08-30T19:54:30.243Z,101678.66
2022-08-30T19:57:01.631Z,101637.38
2022-08-30T19:59:32.974Z,101666.50
2022-08-30T20:02:05.486Z,101650.69
2022-08-30T20:04:38.105Z,101663.97
2022-08-30T20:07:13.587Z,101661.38
2022-08-30T20:09:45.676Z,101659.75
2022-08-30T20:12:19.289Z,101652.69
2022-08-30T20:14:50.764Z,101636.19
2022-08-30T20:17:23.621Z,101656.50
2022-08-30T20:19:55.077Z,101633.72
2022-08-30T20:22:26.764Z,101602.13
2022-08-30T20:24:58.284Z,101656.81
2022-08-30T20:27:29.987Z,101655.34
2022-08-30T20:30:02.182Z,101655.41
2022-08-30T20:32:37.019Z,101623.88
2022-08-30T20:35:08.649Z,101657.50
2022-08-30T20:37:40.268Z,101652.28
2022-08-30T20:40:15.467Z,101657.69
2022-08-30T20:42:47.496Z,101634.06
2022-08-30T20:45:18.964Z,101655.25
2022-08-30T20:47:51.616Z,101667.69
2022-08-30T20:50:23.196Z,101666.81
2022-08-30T20:52:55.529Z,101658.94
2022-08-30T20:55:26.863Z,101669.63
2022-08-30T20:57:58.558Z,101670.66
2022-08-30T21:00:31.149Z,101640.00
2022-08-30T21:03:02.545Z,101667.38
2022-08-30T21:05:39.625Z,101665.69
2022-08-30T21:08:11.035Z,101641.09
2022-08-30T21:14:34.530Z,101658.81
2022-08-30T21:17:05.928Z,101660.63
2022-08-30T21:19:40.871Z,101658.97
2022-08-30T21:26:04.096Z,101693.63
2022-08-30T21:28:36.263Z,101694.59
2022-08-30T21:31:11.320Z,101644.44
2022-08-30T21:33:42.856Z,101704.56
2022-08-30T21:36:33.767Z,101702.00
2022-08-30T21:39:06.051Z,101697.69
2022-08-30T21:41:38.210Z,101681.78
2022-08-30T21:44:14.203Z,101677.53
2022-08-30T21:46:46.852Z,101679.41
2022-08-30T21:49:23.048Z,101672.41
2022-08-30T21:51:55.275Z,101714.81
2022-08-30T21:54:31.343Z,101676.16
2022-08-30T21:57:04.959Z,101709.66
2022-08-30T21:59:36.376Z,101713.31
2022-08-30T22:02:07.733Z,101676.34
2022-08-30T22:04:40.981Z,101697.50
2022-08-30T22:07:12.315Z,101684.53
2022-08-30T22:09:44.041Z,101707.47
2022-08-30T22:12:15.768Z,101711.91
2022-08-30T22:14:47.185Z,101712.00
2022-08-30T22:17:19.087Z,101711.19
2022-08-30T22:19:50.625Z,101713.94
2022-08-30T22:22:22.069Z,101722.06
2022-08-30T22:24:53.435Z,101722.97
2022-08-30T22:27:24.757Z,101730.06
2022-08-30T22:29:56.099Z,101708.94
2022-08-30T22:32:28.555Z,101728.34
2022-08-30T22:35:01.128Z,101725.72
2022-08-30T22:37:33.943Z,101723.13
2022-08-30T22:40:05.766Z,101726.66
2022-08-30T22:42:37.426Z,101727.63
2022-08-30T22:45:09.688Z,101731.22
2022-08-30T22:47:41.565Z,101731.28
2022-08-30T22:50:18.086Z,101732.22
2022-08-30T22:52:49.409Z,101742.88
2022-08-30T22:55:20.809Z,101735.78
2022-08-30T22:57:52.393Z,101731.38
2022-08-30T23:00:23.927Z,101742.97
2022-08-30T23:02:56.982Z,101751.84
2022-08-30T23:05:28.576Z,101741.28
2022-08-30T23:07:59.951Z,101755.50
2022-08-30T23:10:33.068Z,101744.94
2022-08-30T23:13:04.541Z,101754.72
2022-08-30T23:15:36.687Z,101752.94
2022-08-30T23:18:08.138Z,101751.16
2022-08-30T23:20:39.460Z,101723.81
2022-08-30T23:23:11.083Z,101743.22
2022-08-30T23:26:01.299Z,101757.44
2022-08-30T23:28:51.386Z,101753.00
2022-08-30T23:31:41.835Z,101744.16
2022-08-30T23:34:31.935Z,101747.72
2022-08-30T23:37:21.785Z,101748.66
2022-08-30T23:40:12.679Z,101718.72
2022-08-30T23:43:04.052Z,101743.47
2022-08-30T23:45:54.378Z,101747.00
2022-08-30T23:48:52.031Z,101733.78
2022-08-30T23:51:42.539Z,101748.84
2022-08-30T23:54:32.769Z,101741.78
2022-08-30T23:57:23.813Z,101743.66
